Archival Weather

Chicago O'Hare International

Chicago, Illinois (KORD)

Report from: Tuesday, May 2, 2023 2:51 PM CDT
Current time: Sunday, February 25, 2024 3:14 PM CST

Current weather – Weather history – Daily summaries
Weather forecast

Temperature11.7°C (53.1°F)
Dew point0.0°C (32.0°F)
Winds 11 kts (5.7 m/s, 12.7 mph) North-Northwest (330°)
Wind gusts 22 kts (11.3 m/s, 25.3 mph)
Visibility10 mi. (16.1 km)
Clouds Ceiling: Overcast 5,500 ft. (1,676 m)
Altimeter29.59 in.Hg (1002 mB)
Relative humidity44 %
Density altitude74 ft. (22 m)
Sea-level pressure100.2 kPa (1002 mB, 29.60 in.Hg)
Remarks Automated weather observing station with precipitation discriminator
Flight conditions Visual Meteorological Conditions
Raw dataKORD 021951Z 33011G22KT 10SM OVC055 12/00 A2959 RMK AO2 SLP023 T01170000
An error has occurred. This application may no longer respond until reloaded. Reload 🗙